sensor_id;sensor_type;location;lat;lon;timestamp;temperature;humidity
19033;DHT22;9649;51.042;13.804;2023-02-15T00:02:02;2.70;99.90
19033;DHT22;9649;51.042;13.804;2023-02-15T00:07:09;2.60;99.90
19033;DHT22;9649;51.042;13.804;2023-02-15T00:12:18;2.60;99.90
19033;DHT22;9649;51.042;13.804;2023-02-15T00:17:31;2.60;99.90
19033;DHT22;9649;51.042;13.804;2023-02-15T00:22:45;2.60;99.90
19033;DHT22;9649;51.042;13.804;2023-02-15T00:27:48;2.60;99.90
19033;DHT22;9649;51.042;13.804;2023-02-15T00:32:56;2.60;99.90
19033;DHT22;9649;51.042;13.804;2023-02-15T00:37:59;2.50;99.90
19033;DHT22;9649;51.042;13.804;2023-02-15T00:43:11;2.60;99.90
19033;DHT22;9649;51.042;13.804;2023-02-15T00:48:18;2.60;99.90
19033;DHT22;9649;51.042;13.804;2023-02-15T00:53:25;2.70;99.90
19033;DHT22;9649;51.042;13.804;2023-02-15T00:58:30;2.50;99.90
19033;DHT22;9649;51.042;13.804;2023-02-15T01:03:41;2.50;99.90
19033;DHT22;9649;51.042;13.804;2023-02-15T01:08:45;2.40;99.90
19033;DHT22;9649;51.042;13.804;2023-02-15T01:13:52;2.30;99.90
19033;DHT22;9649;51.042;13.804;2023-02-15T01:18:58;2.30;99.90
19033;DHT22;9649;51.042;13.804;2023-02-15T01:24:12;2.40;99.90
19033;DHT22;9649;51.042;13.804;2023-02-15T01:29:18;2.40;99.90
19033;DHT22;9649;51.042;13.804;2023-02-15T01:34:26;2.30;99.90
19033;DHT22;9649;51.042;13.804;2023-02-15T01:39:36;2.40;99.90
19033;DHT22;9649;51.042;13.804;2023-02-15T01:44:48;2.30;99.90
19033;DHT22;9649;51.042;13.804;2023-02-15T01:50:03;2.20;99.90
19033;DHT22;9649;51.042;13.804;2023-02-15T01:55:11;2.20;99.90
19033;DHT22;9649;51.042;13.804;2023-02-15T02:00:22;2.20;99.90
19033;DHT22;9649;51.042;13.804;2023-02-15T02:05:29;2.20;99.90
19033;DHT22;9649;51.042;13.804;2023-02-15T02:10:34;2.20;99.90
19033;DHT22;9649;51.042;13.804;2023-02-15T02:15:46;2.20;99.90
19033;DHT22;9649;51.042;13.804;2023-02-15T02:21:04;2.20;99.90
19033;DHT22;9649;51.042;13.804;2023-02-15T02:31:51;2.20;99.90
19033;DHT22;9649;51.042;13.804;2023-02-15T02:37:03;2.30;99.90
19033;DHT22;9649;51.042;13.804;2023-02-15T02:42:15;2.20;99.90
19033;DHT22;9649;51.042;13.804;2023-02-15T02:47:23;2.20;99.90
19033;DHT22;9649;51.042;13.804;2023-02-15T02:52:40;2.30;99.90
19033;DHT22;9649;51.042;13.804;2023-02-15T02:57:50;2.20;99.90
19033;DHT22;9649;51.042;13.804;2023-02-15T03:02:56;2.10;99.90
19033;DHT22;9649;51.042;13.804;2023-02-15T03:08:04;2.10;99.90
19033;DHT22;9649;51.042;13.804;2023-02-15T03:13:11;2.10;99.90
19033;DHT22;9649;51.042;13.804;2023-02-15T03:18:14;2.10;99.90
19033;DHT22;9649;51.042;13.804;2023-02-15T03:23:22;2.10;99.90
19033;DHT22;9649;51.042;13.804;2023-02-15T03:28:30;2.10;99.90
19033;DHT22;9649;51.042;13.804;2023-02-15T03:33:37;2.10;99.90
19033;DHT22;9649;51.042;13.804;2023-02-15T03:38:47;2.00;99.90
19033;DHT22;9649;51.042;13.804;2023-02-15T03:43:54;1.80;99.90
19033;DHT22;9649;51.042;13.804;2023-02-15T03:49:07;1.80;99.90
19033;DHT22;9649;51.042;13.804;2023-02-15T03:54:13;1.70;99.90
19033;DHT22;9649;51.042;13.804;2023-02-15T03:59:37;1.50;99.90
19033;DHT22;9649;51.042;13.804;2023-02-15T04:04:57;1.50;99.90
19033;DHT22;9649;51.042;13.804;2023-02-15T04:10:01;1.50;99.90
19033;DHT22;9649;51.042;13.804;2023-02-15T04:15:22;1.30;99.90
19033;DHT22;9649;51.042;13.804;2023-02-15T04:20:43;1.30;99.90
19033;DHT22;9649;51.042;13.804;2023-02-15T04:26:05;1.10;99.90
19033;DHT22;9649;51.042;13.804;2023-02-15T04:31:08;1.20;99.90
19033;DHT22;9649;51.042;13.804;2023-02-15T04:36:11;1.20;99.90
19033;DHT22;9649;51.042;13.804;2023-02-15T04:41:15;1.30;99.90
19033;DHT22;9649;51.042;13.804;2023-02-15T04:46:18;1.20;99.90
19033;DHT22;9649;51.042;13.804;2023-02-15T04:51:21;1.10;99.90
19033;DHT22;9649;51.042;13.804;2023-02-15T04:56:25;1.20;99.90
19033;DHT22;9649;51.042;13.804;2023-02-15T05:01:27;1.20;99.90
19033;DHT22;9649;51.042;13.804;2023-02-15T05:06:30;1.10;99.90
19033;DHT22;9649;51.042;13.804;2023-02-15T05:11:34;1.10;99.90
19033;DHT22;9649;51.042;13.804;2023-02-15T05:16:37;1.10;99.90
19033;DHT22;9649;51.042;13.804;2023-02-15T05:21:40;1.20;99.90
19033;DHT22;9649;51.042;13.804;2023-02-15T05:26:44;1.30;99.90
19033;DHT22;9649;51.042;13.804;2023-02-15T05:32:04;1.40;99.90
19033;DHT22;9649;51.042;13.804;2023-02-15T05:37:07;1.40;99.90
19033;DHT22;9649;51.042;13.804;2023-02-15T05:42:11;1.40;99.90
19033;DHT22;9649;51.042;13.804;2023-02-15T05:47:14;1.40;99.90
19033;DHT22;9649;51.042;13.804;2023-02-15T05:52:17;1.30;99.90
19033;DHT22;9649;51.042;13.804;2023-02-15T05:57:21;1.30;99.90
19033;DHT22;9649;51.042;13.804;2023-02-15T06:02:23;1.40;99.90
19033;DHT22;9649;51.042;13.804;2023-02-15T06:07:26;1.50;99.90
19033;DHT22;9649;51.042;13.804;2023-02-15T06:12:30;1.50;99.90
19033;DHT22;9649;51.042;13.804;2023-02-15T06:17:33;1.50;99.90
19033;DHT22;9649;51.042;13.804;2023-02-15T06:22:35;1.50;99.90
19033;DHT22;9649;51.042;13.804;2023-02-15T06:27:42;1.50;99.90
19033;DHT22;9649;51.042;13.804;2023-02-15T06:32:45;1.40;99.90
19033;DHT22;9649;51.042;13.804;2023-02-15T06:37:48;1.60;99.90
19033;DHT22;9649;51.042;13.804;2023-02-15T06:42:55;1.60;99.90
19033;DHT22;9649;51.042;13.804;2023-02-15T06:47:57;1.60;99.90
19033;DHT22;9649;51.042;13.804;2023-02-15T06:53:00;1.70;99.90
19033;DHT22;9649;51.042;13.804;2023-02-15T06:58:04;1.80;99.90
19033;DHT22;9649;51.042;13.804;2023-02-15T07:03:07;1.90;99.90
19033;DHT22;9649;51.042;13.804;2023-02-15T07:08:10;2.00;99.90
19033;DHT22;9649;51.042;13.804;2023-02-15T07:13:14;2.10;99.90
19033;DHT22;9649;51.042;13.804;2023-02-15T07:18:17;2.10;99.90
19033;DHT22;9649;51.042;13.804;2023-02-15T07:23:19;2.20;99.90
19033;DHT22;9649;51.042;13.804;2023-02-15T07:28:23;2.40;99.90
19033;DHT22;9649;51.042;13.804;2023-02-15T07:33:26;3.70;99.90
19033;DHT22;9649;51.042;13.804;2023-02-15T07:38:32;4.70;1.00
19033;DHT22;9649;51.042;13.804;2023-02-15T07:43:37;5.30;1.00
19033;DHT22;9649;51.042;13.804;2023-02-15T07:48:41;5.60;1.00
19033;DHT22;9649;51.042;13.804;2023-02-15T07:53:44;7.40;1.00
19033;DHT22;9649;51.042;13.804;2023-02-15T07:58:52;7.50;1.00
19033;DHT22;9649;51.042;13.804;2023-02-15T08:03:57;7.80;83.90
19033;DHT22;9649;51.042;13.804;2023-02-15T08:09:00;7.70;1.00
19033;DHT22;9649;51.042;13.804;2023-02-15T08:14:07;8.90;99.90
19033;DHT22;9649;51.042;13.804;2023-02-15T08:19:12;9.40;1.00
19033;DHT22;9649;51.042;13.804;2023-02-15T08:24:17;10.40;1.00
19033;DHT22;9649;51.042;13.804;2023-02-15T08:29:26;11.00;99.90
19033;DHT22;9649;51.042;13.804;2023-02-15T08:34:31;10.30;99.90
19033;DHT22;9649;51.042;13.804;2023-02-15T08:39:36;10.90;99.90
19033;DHT22;9649;51.042;13.804;2023-02-15T08:44:43;12.40;1.00
19033;DHT22;9649;51.042;13.804;2023-02-15T08:49:50;13.00;1.00
19033;DHT22;9649;51.042;13.804;2023-02-15T08:54:55;14.20;1.00
19033;DHT22;9649;51.042;13.804;2023-02-15T09:00:02;14.10;1.00
19033;DHT22;9649;51.042;13.804;2023-02-15T09:05:08;14.50;1.00
19033;DHT22;9649;51.042;13.804;2023-02-15T09:10:12;14.40;1.00
19033;DHT22;9649;51.042;13.804;2023-02-15T09:15:19;15.20;1.00
19033;DHT22;9649;51.042;13.804;2023-02-15T09:20:26;16.20;1.00
19033;DHT22;9649;51.042;13.804;2023-02-15T09:25:31;18.20;1.00
19033;DHT22;9649;51.042;13.804;2023-02-15T09:30:38;16.20;1.00
19033;DHT22;9649;51.042;13.804;2023-02-15T09:35:42;16.40;1.00
19033;DHT22;9649;51.042;13.804;2023-02-15T09:40:56;16.40;1.00
19033;DHT22;9649;51.042;13.804;2023-02-15T09:46:27;16.40;1.00
19033;DHT22;9649;51.042;13.804;2023-02-15T09:51:45;17.60;1.00
19033;DHT22;9649;51.042;13.804;2023-02-15T09:56:55;17.60;1.00
19033;DHT22;9649;51.042;13.804;2023-02-15T10:02:13;19.70;1.00
19033;DHT22;9649;51.042;13.804;2023-02-15T10:07:36;21.00;99.90
19033;DHT22;9649;51.042;13.804;2023-02-15T10:12:55;21.70;99.90
19033;DHT22;9649;51.042;13.804;2023-02-15T10:18:14;20.50;99.90
19033;DHT22;9649;51.042;13.804;2023-02-15T10:28:59;19.00;99.90
19033;DHT22;9649;51.042;13.804;2023-02-15T10:34:15;20.20;99.90
19033;DHT22;9649;51.042;13.804;2023-02-15T10:39:25;18.40;99.90
19033;DHT22;9649;51.042;13.804;2023-02-15T10:44:42;18.30;99.90
19033;DHT22;9649;51.042;13.804;2023-02-15T10:50:04;18.30;99.90
19033;DHT22;9649;51.042;13.804;2023-02-15T10:55:14;19.20;99.90
19033;DHT22;9649;51.042;13.804;2023-02-15T11:00:25;20.20;99.90
19033;DHT22;9649;51.042;13.804;2023-02-15T11:05:41;21.10;99.90
19033;DHT22;9649;51.042;13.804;2023-02-15T11:10:48;20.00;99.90
19033;DHT22;9649;51.042;13.804;2023-02-15T11:15:55;20.20;99.90
19033;DHT22;9649;51.042;13.804;2023-02-15T11:21:02;18.20;99.90
19033;DHT22;9649;51.042;13.804;2023-02-15T11:26:11;19.60;99.90
19033;DHT22;9649;51.042;13.804;2023-02-15T11:31:17;19.80;99.90
19033;DHT22;9649;51.042;13.804;2023-02-15T11:36:24;19.80;99.90
19033;DHT22;9649;51.042;13.804;2023-02-15T11:41:34;20.60;99.90
19033;DHT22;9649;51.042;13.804;2023-02-15T11:46:38;19.80;99.90
19033;DHT22;9649;51.042;13.804;2023-02-15T11:51:43;18.80;99.90
19033;DHT22;9649;51.042;13.804;2023-02-15T11:56:46;20.20;99.90
19033;DHT22;9649;51.042;13.804;2023-02-15T12:01:49;18.80;99.90
19033;DHT22;9649;51.042;13.804;2023-02-15T12:06:58;18.10;99.90
19033;DHT22;9649;51.042;13.804;2023-02-15T12:12:24;17.80;99.90
19033;DHT22;9649;51.042;13.804;2023-02-15T12:17:30;17.10;1.00
19033;DHT22;9649;51.042;13.804;2023-02-15T12:22:39;18.30;99.90
19033;DHT22;9649;51.042;13.804;2023-02-15T12:27:48;18.10;99.90
19033;DHT22;9649;51.042;13.804;2023-02-15T12:32:56;19.30;99.90
19033;DHT22;9649;51.042;13.804;2023-02-15T12:38:05;18.80;99.90
19033;DHT22;9649;51.042;13.804;2023-02-15T12:43:25;19.70;99.90
19033;DHT22;9649;51.042;13.804;2023-02-15T12:48:30;19.80;99.90
19033;DHT22;9649;51.042;13.804;2023-02-15T12:53:42;21.40;99.90
19033;DHT22;9649;51.042;13.804;2023-02-15T12:58:46;20.00;99.90
19033;DHT22;9649;51.042;13.804;2023-02-15T13:03:57;18.80;99.90
19033;DHT22;9649;51.042;13.804;2023-02-15T13:09:13;17.90;99.90
19033;DHT22;9649;51.042;13.804;2023-02-15T13:14:20;19.20;99.90
19033;DHT22;9649;51.042;13.804;2023-02-15T13:19:31;21.30;99.90
19033;DHT22;9649;51.042;13.804;2023-02-15T13:24:40;18.40;99.90
19033;DHT22;9649;51.042;13.804;2023-02-15T13:29:53;18.80;99.90
19033;DHT22;9649;51.042;13.804;2023-02-15T13:35:01;18.90;99.90
19033;DHT22;9649;51.042;13.804;2023-02-15T13:40:13;17.70;99.90
19033;DHT22;9649;51.042;13.804;2023-02-15T13:45:32;18.60;99.90
19033;DHT22;9649;51.042;13.804;2023-02-15T13:50:54;17.10;99.90
19033;DHT22;9649;51.042;13.804;2023-02-15T13:56:04;18.90;99.90
19033;DHT22;9649;51.042;13.804;2023-02-15T14:01:13;19.10;99.90
19033;DHT22;9649;51.042;13.804;2023-02-15T14:06:39;17.40;99.90
19033;DHT22;9649;51.042;13.804;2023-02-15T14:11:58;16.90;99.90
19033;DHT22;9649;51.042;13.804;2023-02-15T14:17:15;16.10;99.90
19033;DHT22;9649;51.042;13.804;2023-02-15T14:22:29;16.70;1.00
19033;DHT22;9649;51.042;13.804;2023-02-15T14:27:45;14.40;1.00
19033;DHT22;9649;51.042;13.804;2023-02-15T14:32:56;14.10;1.00
19033;DHT22;9649;51.042;13.804;2023-02-15T14:38:07;15.20;1.00
19033;DHT22;9649;51.042;13.804;2023-02-15T14:43:27;14.40;1.00
19033;DHT22;9649;51.042;13.804;2023-02-15T14:48:38;13.90;1.00
19033;DHT22;9649;51.042;13.804;2023-02-15T14:53:47;13.90;1.00
19033;DHT22;9649;51.042;13.804;2023-02-15T14:59:20;13.10;1.00
19033;DHT22;9649;51.042;13.804;2023-02-15T15:04:38;11.80;1.00
19033;DHT22;9649;51.042;13.804;2023-02-15T15:09:48;11.90;1.00
19033;DHT22;9649;51.042;13.804;2023-02-15T15:15:48;12.20;1.00
19033;DHT22;9649;51.042;13.804;2023-02-15T15:20:59;12.70;1.00
19033;DHT22;9649;51.042;13.804;2023-02-15T15:26:30;12.20;1.00
19033;DHT22;9649;51.042;13.804;2023-02-15T15:31:49;11.60;1.00
19033;DHT22;9649;51.042;13.804;2023-02-15T15:43:26;9.90;1.00
19033;DHT22;9649;51.042;13.804;2023-02-15T15:48:37;10.30;99.90
19033;DHT22;9649;51.042;13.804;2023-02-15T15:53:42;9.10;1.00
19033;DHT22;9649;51.042;13.804;2023-02-15T15:58:50;7.80;1.00
19033;DHT22;9649;51.042;13.804;2023-02-15T16:03:57;7.00;99.90
19033;DHT22;9649;51.042;13.804;2023-02-15T16:09:16;6.60;99.90
19033;DHT22;9649;51.042;13.804;2023-02-15T16:14:26;6.30;1.00
19033;DHT22;9649;51.042;13.804;2023-02-15T16:19:33;6.00;1.00
19033;DHT22;9649;51.042;13.804;2023-02-15T16:24:47;5.70;1.00
19033;DHT22;9649;51.042;13.804;2023-02-15T16:29:54;5.60;96.50
19033;DHT22;9649;51.042;13.804;2023-02-15T16:35:00;5.30;99.90
19033;DHT22;9649;51.042;13.804;2023-02-15T16:40:04;4.90;99.90
19033;DHT22;9649;51.042;13.804;2023-02-15T16:45:12;4.90;99.90
19033;DHT22;9649;51.042;13.804;2023-02-15T16:50:19;4.70;99.90
19033;DHT22;9649;51.042;13.804;2023-02-15T16:55:25;4.60;99.90
19033;DHT22;9649;51.042;13.804;2023-02-15T17:00:31;4.50;1.00
19033;DHT22;9649;51.042;13.804;2023-02-15T17:05:41;4.30;1.00
19033;DHT22;9649;51.042;13.804;2023-02-15T17:11:21;4.10;1.00
19033;DHT22;9649;51.042;13.804;2023-02-15T17:16:58;4.10;1.00
19033;DHT22;9649;51.042;13.804;2023-02-15T17:22:23;4.00;1.00
19033;DHT22;9649;51.042;13.804;2023-02-15T17:27:30;3.90;1.00
19033;DHT22;9649;51.042;13.804;2023-02-15T17:32:52;3.90;1.00
19033;DHT22;9649;51.042;13.804;2023-02-15T17:38:22;3.80;1.00
19033;DHT22;9649;51.042;13.804;2023-02-15T17:43:46;3.70;1.00
19033;DHT22;9649;51.042;13.804;2023-02-15T17:48:50;3.60;1.00
19033;DHT22;9649;51.042;13.804;2023-02-15T17:53:55;3.50;1.00
19033;DHT22;9649;51.042;13.804;2023-02-15T17:59:15;3.40;1.00
19033;DHT22;9649;51.042;13.804;2023-02-15T18:04:18;3.50;1.00
19033;DHT22;9649;51.042;13.804;2023-02-15T18:09:40;3.40;1.00
19033;DHT22;9649;51.042;13.804;2023-02-15T18:15:01;3.40;1.00
19033;DHT22;9649;51.042;13.804;2023-02-15T18:20:09;3.30;1.00
19033;DHT22;9649;51.042;13.804;2023-02-15T18:25:21;3.30;1.00
19033;DHT22;9649;51.042;13.804;2023-02-15T18:30:25;3.20;1.00
19033;DHT22;9649;51.042;13.804;2023-02-15T18:35:30;3.10;1.00
19033;DHT22;9649;51.042;13.804;2023-02-15T18:40:35;3.10;1.00
19033;DHT22;9649;51.042;13.804;2023-02-15T18:45:37;3.10;1.00
19033;DHT22;9649;51.042;13.804;2023-02-15T18:50:42;3.00;1.00
19033;DHT22;9649;51.042;13.804;2023-02-15T18:55:46;3.00;1.00
19033;DHT22;9649;51.042;13.804;2023-02-15T20:17:06;2.50;16.20
19033;DHT22;9649;51.042;13.804;2023-02-15T20:22:26;2.50;8.90
19033;DHT22;9649;51.042;13.804;2023-02-15T20:27:35;2.50;1.00
19033;DHT22;9649;51.042;13.804;2023-02-15T20:32:44;2.50;1.00
19033;DHT22;9649;51.042;13.804;2023-02-15T20:37:52;2.40;8.70
19033;DHT22;9649;51.042;13.804;2023-02-15T20:43:09;2.40;30.50
19033;DHT22;9649;51.042;13.804;2023-02-15T20:48:34;2.40;1.00
19033;DHT22;9649;51.042;13.804;2023-02-15T20:53:37;2.40;1.00
19033;DHT22;9649;51.042;13.804;2023-02-15T20:58:40;2.40;1.00
19033;DHT22;9649;51.042;13.804;2023-02-15T21:04:16;2.40;1.00
19033;DHT22;9649;51.042;13.804;2023-02-15T21:09:19;2.40;1.00
19033;DHT22;9649;51.042;13.804;2023-02-15T21:14:23;2.50;1.00
19033;DHT22;9649;51.042;13.804;2023-02-15T21:19:31;2.40;1.00
19033;DHT22;9649;51.042;13.804;2023-02-15T21:24:37;2.40;1.00
19033;DHT22;9649;51.042;13.804;2023-02-15T21:29:40;2.30;1.00
19033;DHT22;9649;51.042;13.804;2023-02-15T21:34:45;2.40;1.00
19033;DHT22;9649;51.042;13.804;2023-02-15T21:39:48;2.30;1.00
19033;DHT22;9649;51.042;13.804;2023-02-15T21:44:50;2.30;1.00
19033;DHT22;9649;51.042;13.804;2023-02-15T21:50:14;2.20;1.00
19033;DHT22;9649;51.042;13.804;2023-02-15T21:55:34;2.20;1.00
19033;DHT22;9649;51.042;13.804;2023-02-15T22:00:37;2.20;1.00
19033;DHT22;9649;51.042;13.804;2023-02-15T22:05:41;2.10;14.30
19033;DHT22;9649;51.042;13.804;2023-02-15T22:10:44;2.10;26.20
19033;DHT22;9649;51.042;13.804;2023-02-15T22:15:48;2.00;60.10
19033;DHT22;9649;51.042;13.804;2023-02-15T22:20:58;2.00;58.90
19033;DHT22;9649;51.042;13.804;2023-02-15T22:26:07;1.90;89.10
19033;DHT22;9649;51.042;13.804;2023-02-15T22:31:27;1.90;87.80
19033;DHT22;9649;51.042;13.804;2023-02-15T22:36:47;2.00;70.10
19033;DHT22;9649;51.042;13.804;2023-02-15T22:42:00;2.00;64.00
19033;DHT22;9649;51.042;13.804;2023-02-15T22:47:18;2.00;54.20
19033;DHT22;9649;51.042;13.804;2023-02-15T22:52:45;2.10;40.80
19033;DHT22;9649;51.042;13.804;2023-02-15T22:58:15;2.00;51.70
19033;DHT22;9649;51.042;13.804;2023-02-15T23:03:35;2.00;66.80
19033;DHT22;9649;51.042;13.804;2023-02-15T23:08:58;2.00;93.60
19033;DHT22;9649;51.042;13.804;2023-02-15T23:14:22;1.90;99.90
19033;DHT22;9649;51.042;13.804;2023-02-15T23:19:34;1.90;99.90
19033;DHT22;9649;51.042;13.804;2023-02-15T23:24:41;1.90;99.90
19033;DHT22;9649;51.042;13.804;2023-02-15T23:29:52;1.80;99.90
19033;DHT22;9649;51.042;13.804;2023-02-15T23:34:58;1.80;99.90
19033;DHT22;9649;51.042;13.804;2023-02-15T23:40:12;1.70;99.90
19033;DHT22;9649;51.042;13.804;2023-02-15T23:45:37;1.70;99.90
19033;DHT22;9649;51.042;13.804;2023-02-15T23:50:40;1.60;99.90
19033;DHT22;9649;51.042;13.804;2023-02-15T23:55:45;1.60;99.90
